Time;durP1;ratioP1;P1;durP2;ratioP2;P2;SDS_P1;SDS_P2;PMS_P1;PMS_P2;Temp;Humidity;BMP_temperature;BMP_pressure;BME280_temperature;BME280_humidity;BME280_pressure;Samples;Min_cycle;Max_cycle;Signal;HPM_P1;HPM_P2
2023/11/25 00:01:31;;;;;;;6.32;1.50;;;;;;;;;;4973127;28;20078;-59
2023/11/25 00:04:05;;;;;;;4.97;1.25;;;;;;;;;;4979362;28;20112;-56
2023/11/25 00:06:32;;;;;;;9.68;1.42;;;;;;;;;;4980184;28;20539;-59
2023/11/25 00:09:06;;;;;;;8.40;2.55;;;;;;;;;;4976061;28;20069;-56
2023/11/25 00:11:33;;;;;;;3.95;1.50;;;;;;;;;;4975219;28;20644;-59
2023/11/25 00:14:00;;;;;;;6.25;1.35;;;;;;;;;;4983538;28;20057;-58
2023/11/25 00:17:01;;;;;;;5.40;2.22;;;;;;;;;;4992865;28;20621;-59
2023/11/25 00:19:48;;;;;;;5.25;1.52;;;;;;;;;;4994713;28;20055;-59
2023/11/25 00:22:43;;;;;;;5.10;1.55;;;;;;;;;;4997575;28;20131;-59
2023/11/25 00:25:30;;;;;;;3.08;1.73;;;;;;;;;;4998603;28;20057;-58
2023/11/25 00:28:23;;;;;;;7.30;1.60;;;;;;;;;;4996537;28;20058;-62
2023/11/25 00:31:11;;;;;;;8.10;1.55;;;;;;;;;;4994706;28;20061;-61
2023/11/25 00:34:05;;;;;;;5.03;1.38;;;;;;;;;;4995979;28;20061;-62
2023/11/25 00:36:52;;;;;;;2.50;1.50;;;;;;;;;;4995400;28;20065;-54
2023/11/25 00:39:46;;;;;;;3.60;1.52;;;;;;;;;;4993444;28;20058;-55
2023/11/25 00:42:34;;;;;;;5.15;1.67;;;;;;;;;;4994416;28;20046;-56
2023/11/25 00:45:26;;;;;;;8.93;1.77;;;;;;;;;;4996072;28;20085;-56
2023/11/25 00:48:14;;;;;;;7.43;1.58;;;;;;;;;;4995845;28;20061;-55
2023/11/25 00:51:07;;;;;;;2.90;1.40;;;;;;;;;;5000450;28;20058;-55
2023/11/25 00:54:01;;;;;;;9.43;1.77;;;;;;;;;;4996131;28;20131;-53
2023/11/25 00:56:55;;;;;;;4.93;1.33;;;;;;;;;;4991077;28;20097;-67
2023/11/25 00:59:49;;;;;;;6.78;1.52;;;;;;;;;;4996469;28;20124;-67
2023/11/25 01:02:44;;;;;;;8.00;1.92;;;;;;;;;;4993678;28;20057;-67
2023/11/25 01:05:32;;;;;;;3.45;1.23;;;;;;;;;;4999082;28;20057;-59
2023/11/25 01:08:29;;;;;;;3.92;1.55;;;;;;;;;;4994179;28;20517;-59
2023/11/25 01:11:22;;;;;;;7.88;1.50;;;;;;;;;;4995522;28;20176;-58
2023/11/25 01:14:23;;;;;;;3.10;1.23;;;;;;;;;;4993741;28;20058;-59
2023/11/25 01:17:17;;;;;;;11.95;2.13;;;;;;;;;;4989692;28;20799;-59
2023/11/25 01:20:11;;;;;;;5.55;1.90;;;;;;;;;;4995769;28;20256;-60
2023/11/25 01:22:58;;;;;;;7.00;1.92;;;;;;;;;;4991919;28;20050;-59
2023/11/25 01:25:51;;;;;;;9.07;1.80;;;;;;;;;;4992439;28;20057;-61
2023/11/25 01:28:40;;;;;;;3.95;1.65;;;;;;;;;;4993517;28;20805;-60
2023/11/25 01:31:40;;;;;;;10.27;2.45;;;;;;;;;;4992311;28;20085;-59
2023/11/25 01:34:26;;;;;;;8.75;2.00;;;;;;;;;;4995978;28;20509;-67
2023/11/25 01:37:23;;;;;;;4.03;1.90;;;;;;;;;;4996373;28;21026;-61
2023/11/25 01:40:11;;;;;;;7.57;1.65;;;;;;;;;;4995456;28;20054;-61
2023/11/25 01:43:03;;;;;;;8.70;2.05;;;;;;;;;;4991071;28;20057;-61
2023/11/25 01:45:50;;;;;;;3.15;1.40;;;;;;;;;;4992320;28;20134;-62
2023/11/25 01:48:44;;;;;;;8.15;1.63;;;;;;;;;;4992654;28;20058;-62
2023/11/25 01:51:32;;;;;;;4.18;1.67;;;;;;;;;;4996031;28;20054;-66
2023/11/25 01:54:26;;;;;;;5.13;1.48;;;;;;;;;;4994845;28;20472;-66
2023/11/25 01:57:16;;;;;;;4.35;1.60;;;;;;;;;;4983513;28;20053;-66
2023/11/25 02:00:13;;;;;;;4.78;1.70;;;;;;;;;;4987278;28;20060;-67
2023/11/25 02:02:59;;;;;;;9.20;1.67;;;;;;;;;;4995082;28;20062;-54
2023/11/25 02:05:54;;;;;;;9.00;1.90;;;;;;;;;;4997553;28;20053;-61
2023/11/25 02:08:43;;;;;;;8.25;1.80;;;;;;;;;;4993269;28;20112;-61
2023/11/25 02:11:55;;;;;;;7.53;1.58;;;;;;;;;;4997602;28;20116;-62
2023/11/25 02:14:48;;;;;;;7.38;1.70;;;;;;;;;;4999411;28;20049;-62
2023/11/25 02:17:44;;;;;;;8.68;1.95;;;;;;;;;;4992178;28;20448;-62
2023/11/25 02:20:40;;;;;;;6.57;1.77;;;;;;;;;;5002065;28;20128;-55
2023/11/25 02:23:31;;;;;;;8.10;1.50;;;;;;;;;;5000590;28;20563;-56
2023/11/25 02:26:18;;;;;;;5.57;1.77;;;;;;;;;;4995283;28;20050;-55
2023/11/25 02:29:11;;;;;;;3.63;1.30;;;;;;;;;;4999684;28;20057;-56
2023/11/25 02:31:59;;;;;;;6.65;1.75;;;;;;;;;;4998714;28;20072;-58
2023/11/25 02:34:53;;;;;;;8.63;1.42;;;;;;;;;;5001500;28;20086;-59
2023/11/25 02:37:46;;;;;;;7.35;1.58;;;;;;;;;;4999976;28;20053;-59
2023/11/25 02:40:34;;;;;;;7.53;1.90;;;;;;;;;;5001847;28;20066;-58
2023/11/25 02:43:27;;;;;;;10.68;1.50;;;;;;;;;;5000685;28;20049;-59
2023/11/25 02:46:15;;;;;;;4.40;1.27;;;;;;;;;;5001353;28;20066;-59
2023/11/25 02:49:10;;;;;;;8.95;1.70;;;;;;;;;;4997547;28;20058;-54
2023/11/25 02:51:57;;;;;;;6.80;1.67;;;;;;;;;;4996437;28;20514;-55
2023/11/25 02:54:49;;;;;;;11.30;1.63;;;;;;;;;;4992157;28;20100;-55
2023/11/25 02:57:43;;;;;;;8.57;1.80;;;;;;;;;;4991865;28;20080;-55
2023/11/25 03:00:39;;;;;;;4.53;1.35;;;;;;;;;;4996211;28;20143;-55
2023/11/25 03:03:22;;;;;;;5.50;1.75;;;;;;;;;;4996971;28;20475;-59
2023/11/25 03:06:21;;;;;;;8.27;1.80;;;;;;;;;;4995771;28;20053;-60
2023/11/25 03:09:06;;;;;;;2.22;1.30;;;;;;;;;;4996514;28;20062;-60
2023/11/25 03:11:58;;;;;;;3.55;1.63;;;;;;;;;;4997321;28;20166;-60
2023/11/25 03:14:50;;;;;;;2.83;1.63;;;;;;;;;;4996875;28;20094;-59
2023/11/25 03:17:43;;;;;;;4.93;1.67;;;;;;;;;;5001152;28;20058;-67
2023/11/25 03:20:31;;;;;;;7.63;1.88;;;;;;;;;;4993844;28;20062;-67
2023/11/25 03:23:24;;;;;;;7.03;2.67;;;;;;;;;;4996425;28;20716;-66
2023/11/25 03:26:19;;;;;;;8.70;2.30;;;;;;;;;;4999092;28;20464;-66
2023/11/25 03:29:13;;;;;;;8.18;2.63;;;;;;;;;;4998634;28;20116;-51
2023/11/25 03:32:00;;;;;;;6.63;3.03;;;;;;;;;;5002773;28;20054;-60
2023/11/25 03:34:55;;;;;;;4.55;1.73;;;;;;;;;;4996780;28;20053;-60
2023/11/25 03:37:42;;;;;;;6.63;2.13;;;;;;;;;;4999582;28;20492;-61
2023/11/25 03:40:36;;;;;;;5.32;2.03;;;;;;;;;;4998561;28;20053;-61
2023/11/25 03:43:23;;;;;;;4.88;1.98;;;;;;;;;;5004278;28;20457;-60
2023/11/25 03:46:17;;;;;;;5.40;1.80;;;;;;;;;;5003979;28;20605;-55
2023/11/25 03:49:05;;;;;;;6.77;1.70;;;;;;;;;;5002757;28;20065;-54
2023/11/25 03:52:02;;;;;;;3.97;1.77;;;;;;;;;;5002515;28;20056;-56
2023/11/25 03:54:49;;;;;;;9.50;2.40;;;;;;;;;;5003759;28;20083;-56
2023/11/25 03:57:43;;;;;;;3.05;1.80;;;;;;;;;;5002008;28;20058;-59
2023/11/25 04:00:38;;;;;;;6.40;2.05;;;;;;;;;;4999805;28;20465;-51
2023/11/25 04:03:25;;;;;;;7.03;1.77;;;;;;;;;;4996328;28;20057;-50
2023/11/25 04:06:19;;;;;;;5.30;1.92;;;;;;;;;;4998512;28;20053;-50
2023/11/25 04:09:06;;;;;;;9.55;2.25;;;;;;;;;;5000976;28;20058;-48
2023/11/25 04:12:00;;;;;;;15.32;2.38;;;;;;;;;;5001097;28;20107;-49
2023/11/25 04:15:00;;;;;;;5.25;1.80;;;;;;;;;;5000073;28;20479;-66
2023/11/25 04:17:54;;;;;;;9.35;1.85;;;;;;;;;;4998475;28;20061;-67
2023/11/25 04:20:43;;;;;;;6.53;1.98;;;;;;;;;;4998362;28;20054;-66
2023/11/25 04:23:36;;;;;;;6.55;1.75;;;;;;;;;;4998991;28;20056;-56
2023/11/25 04:26:24;;;;;;;4.57;1.77;;;;;;;;;;4999333;28;20124;-60
2023/11/25 04:29:19;;;;;;;4.85;1.65;;;;;;;;;;5000242;28;20108;-61
2023/11/25 04:32:05;;;;;;;5.30;1.73;;;;;;;;;;4997948;28;20070;-61
2023/11/25 04:34:59;;;;;;;5.70;1.83;;;;;;;;;;4995487;28;20421;-61
2023/11/25 04:37:46;;;;;;;5.78;1.90;;;;;;;;;;4999434;28;20046;-61
2023/11/25 04:40:39;;;;;;;6.15;1.77;;;;;;;;;;5000085;28;20054;-61
2023/11/25 04:43:27;;;;;;;8.27;1.80;;;;;;;;;;4996745;28;20607;-61
2023/11/25 04:46:21;;;;;;;4.55;1.70;;;;;;;;;;4997159;28;20065;-60
2023/11/25 04:49:08;;;;;;;7.28;1.80;;;;;;;;;;4992344;28;20441;-61
2023/11/25 04:52:04;;;;;;;12.75;1.83;;;;;;;;;;4994614;28;20104;-60
2023/11/25 04:54:50;;;;;;;9.07;2.40;;;;;;;;;;4997177;28;20145;-61
2023/11/25 04:57:45;;;;;;;8.88;1.70;;;;;;;;;;4995412;28;20050;-59
2023/11/25 05:00:32;;;;;;;8.65;1.85;;;;;;;;;;4995093;28;20666;-58
2023/11/25 05:03:26;;;;;;;10.65;1.77;;;;;;;;;;4988286;28;20058;-58
2023/11/25 05:06:13;;;;;;;8.23;1.42;;;;;;;;;;4990490;28;20066;-59
2023/11/25 05:09:13;;;;;;;4.07;1.60;;;;;;;;;;4995098;28;20058;-59
2023/11/25 05:11:58;;;;;;;8.10;2.05;;;;;;;;;;4991722;28;20057;-60
2023/11/25 05:14:58;;;;;;;7.57;2.03;;;;;;;;;;4991763;28;21630;-60
2023/11/25 05:17:53;;;;;;;8.30;2.20;;;;;;;;;;4992283;28;20079;-60
2023/11/25 05:20:47;;;;;;;7.68;1.65;;;;;;;;;;4996550;28;20050;-59
2023/11/25 05:23:34;;;;;;;5.45;1.73;;;;;;;;;;4999936;28;20077;-57
2023/11/25 05:26:28;;;;;;;7.20;1.88;;;;;;;;;;5001208;28;20065;-57
2023/11/25 05:29:15;;;;;;;9.13;1.75;;;;;;;;;;4999673;28;20402;-57
2023/11/25 05:32:09;;;;;;;5.45;1.58;;;;;;;;;;5001938;28;20115;-58
2023/11/25 05:34:56;;;;;;;8.10;1.90;;;;;;;;;;4998965;28;20065;-58
2023/11/25 05:37:50;;;;;;;4.75;1.60;;;;;;;;;;5000504;28;20120;-58
2023/11/25 05:40:37;;;;;;;9.07;1.73;;;;;;;;;;5000065;28;20058;-59
2023/11/25 05:43:31;;;;;;;5.65;1.73;;;;;;;;;;5001786;28;20085;-59
2023/11/25 05:46:22;;;;;;;2.92;1.40;;;;;;;;;;4997608;28;20129;-59
2023/11/25 05:49:16;;;;;;;6.22;1.65;;;;;;;;;;5000797;28;20081;-50
2023/11/25 05:52:10;;;;;;;7.82;1.80;;;;;;;;;;5003508;28;20140;-59
2023/11/25 05:55:05;;;;;;;7.00;1.85;;;;;;;;;;5001172;28;20057;-59
2023/11/25 05:57:52;;;;;;;4.78;1.73;;;;;;;;;;4998317;28;20551;-59
2023/11/25 06:00:45;;;;;;;5.28;1.67;;;;;;;;;;4993219;28;20061;-59
2023/11/25 06:03:32;;;;;;;4.60;1.65;;;;;;;;;;4995347;28;20061;-59
2023/11/25 06:06:26;;;;;;;5.53;1.30;;;;;;;;;;4991913;28;20153;-59
2023/11/25 06:09:14;;;;;;;3.38;1.55;;;;;;;;;;4998257;28;20089;-62
2023/11/25 06:12:09;;;;;;;3.95;1.20;;;;;;;;;;4999507;28;20493;-62
2023/11/25 06:15:00;;;;;;;6.03;1.63;;;;;;;;;;4995950;28;20140;-62
2023/11/25 06:17:55;;;;;;;8.35;1.42;;;;;;;;;;4993490;28;20050;-67
2023/11/25 06:20:43;;;;;;;8.38;2.47;;;;;;;;;;4991221;28;20048;-62
2023/11/25 06:23:36;;;;;;;5.00;1.48;;;;;;;;;;4994213;28;20636;-61
2023/11/25 06:26:23;;;;;;;2.90;1.25;;;;;;;;;;4998432;28;20050;-61
2023/11/25 06:29:17;;;;;;;3.35;1.50;;;;;;;;;;4995198;28;20058;-61
2023/11/25 06:32:04;;;;;;;5.80;1.67;;;;;;;;;;4997263;28;20064;-61
2023/11/25 06:34:58;;;;;;;5.30;1.45;;;;;;;;;;4997966;28;20050;-60
2023/11/25 06:37:45;;;;;;;4.78;1.48;;;;;;;;;;4997152;28;20050;-67
2023/11/25 06:40:40;;;;;;;5.70;1.83;;;;;;;;;;4998098;28;20054;-68
2023/11/25 06:43:33;;;;;;;3.38;1.40;;;;;;;;;;5000991;28;20061;-66
2023/11/25 06:46:23;;;;;;;3.85;1.63;;;;;;;;;;4999831;28;20049;-60
2023/11/25 06:49:15;;;;;;;1.23;1.13;;;;;;;;;;5002758;28;20111;-53
2023/11/25 06:52:03;;;;;;;2.47;1.42;;;;;;;;;;5000958;28;20072;-55
2023/11/25 06:54:56;;;;;;;3.65;1.50;;;;;;;;;;5004222;28;20053;-46
2023/11/25 06:57:43;;;;;;;1.90;1.33;;;;;;;;;;5003644;28;20057;-52
2023/11/25 07:00:37;;;;;;;2.15;1.48;;;;;;;;;;5002856;28;20054;-48
2023/11/25 07:03:31;;;;;;;1.20;1.10;;;;;;;;;;5003293;28;20049;-55
2023/11/25 07:06:18;;;;;;;2.00;1.30;;;;;;;;;;5002830;28;20126;-61
2023/11/25 07:09:13;;;;;;;2.10;1.27;;;;;;;;;;5002650;28;20151;-61
2023/11/25 07:11:59;;;;;;;2.03;1.23;;;;;;;;;;5000026;28;21725;-60
2023/11/25 07:14:54;;;;;;;2.30;1.40;;;;;;;;;;4999559;28;20123;-65
2023/11/25 07:17:54;;;;;;;2.28;1.50;;;;;;;;;;5004721;28;20493;-63
2023/11/25 07:20:47;;;;;;;1.42;1.20;;;;;;;;;;5003151;28;20050;-63
2023/11/25 07:23:34;;;;;;;1.15;1.05;;;;;;;;;;5006192;28;20082;-63
2023/11/25 07:26:28;;;;;;;3.63;1.63;;;;;;;;;;5003374;28;20050;-63
2023/11/25 07:29:15;;;;;;;2.58;1.40;;;;;;;;;;5002348;28;20517;-62
2023/11/25 07:32:09;;;;;;;1.90;1.25;;;;;;;;;;4999655;28;20057;-62
2023/11/25 07:34:56;;;;;;;4.15;1.65;;;;;;;;;;4999553;28;20132;-62
2023/11/25 07:37:50;;;;;;;5.85;2.10;;;;;;;;;;5005566;28;20334;-62
2023/11/25 07:40:37;;;;;;;3.40;1.80;;;;;;;;;;5001555;28;20591;-61
2023/11/25 07:43:31;;;;;;;3.45;1.70;;;;;;;;;;5002577;28;20108;-51
2023/11/25 07:46:18;;;;;;;2.25;1.67;;;;;;;;;;4997455;28;20482;-51
2023/11/25 07:49:12;;;;;;;4.80;2.28;;;;;;;;;;5001110;28;20045;-49
2023/11/25 07:51:59;;;;;;;2.78;1.90;;;;;;;;;;5000022;28;20137;-50
2023/11/25 07:54:53;;;;;;;3.78;1.70;;;;;;;;;;5000503;28;20058;-50
2023/11/25 07:57:47;;;;;;;2.70;1.92;;;;;;;;;;4996855;28;20406;-51
2023/11/25 08:00:41;;;;;;;2.40;1.80;;;;;;;;;;4994306;28;20045;-53
2023/11/25 08:03:34;;;;;;;2.80;2.15;;;;;;;;;;4995436;28;20521;-57
2023/11/25 08:06:25;;;;;;;2.65;1.90;;;;;;;;;;4997494;28;20088;-56
2023/11/25 08:09:18;;;;;;;1.77;1.48;;;;;;;;;;4994089;28;20062;-58
2023/11/25 08:12:03;;;;;;;4.93;2.22;;;;;;;;;;4993526;28;20067;-65
2023/11/25 08:15:03;;;;;;;3.25;2.08;;;;;;;;;;4996298;28;20140;-58
2023/11/25 08:18:00;;;;;;;3.45;1.88;;;;;;;;;;4993729;28;20054;-60
2023/11/25 08:20:53;;;;;;;3.03;1.90;;;;;;;;;;4995769;28;20468;-60
2023/11/25 08:23:41;;;;;;;3.03;1.88;;;;;;;;;;5000634;28;20042;-60
2023/11/25 08:26:35;;;;;;;3.58;2.20;;;;;;;;;;4999090;28;20049;-58
2023/11/25 08:29:23;;;;;;;3.72;1.92;;;;;;;;;;4999716;28;20155;-57
2023/11/25 08:32:16;;;;;;;2.80;2.08;;;;;;;;;;4994096;28;20053;-66
2023/11/25 08:35:05;;;;;;;3.10;2.20;;;;;;;;;;4994687;28;20073;-65
2023/11/25 08:37:58;;;;;;;2.65;1.50;;;;;;;;;;5001354;28;20585;-65
2023/11/25 08:40:53;;;;;;;2.58;1.80;;;;;;;;;;4999107;28;20045;-59
2023/11/25 08:43:43;;;;;;;2.08;1.77;;;;;;;;;;4995404;28;20512;-61
2023/11/25 08:46:37;;;;;;;3.25;1.90;;;;;;;;;;4996197;28;20045;-61
2023/11/25 08:49:29;;;;;;;2.58;1.80;;;;;;;;;;4994994;28;20054;-61
2023/11/25 08:52:16;;;;;;;2.38;1.70;;;;;;;;;;4998380;28;20069;-61
2023/11/25 08:55:10;;;;;;;2.92;1.77;;;;;;;;;;4997667;28;20068;-61
2023/11/25 08:57:57;;;;;;;4.13;1.90;;;;;;;;;;4994117;28;20068;-61
2023/11/25 09:00:51;;;;;;;2.63;1.77;;;;;;;;;;4991106;28;20053;-62
2023/11/25 09:03:39;;;;;;;2.65;1.65;;;;;;;;;;4994923;28;20504;-62
2023/11/25 09:06:31;;;;;;;1.88;1.40;;;;;;;;;;4995046;28;20799;-61
2023/11/25 09:09:26;;;;;;;1.92;1.60;;;;;;;;;;4993178;28;20054;-56
2023/11/25 09:12:19;;;;;;;2.85;1.40;;;;;;;;;;4994044;28;20137;-50
2023/11/25 09:15:13;;;;;;;1.83;1.30;;;;;;;;;;4993998;28;20159;-48
2023/11/25 09:18:16;;;;;;;2.50;1.52;;;;;;;;;;4996298;28;20052;-53
2023/11/25 09:21:10;;;;;;;2.22;1.63;;;;;;;;;;4999742;28;20045;-51
2023/11/25 09:23:56;;;;;;;2.15;1.63;;;;;;;;;;4998510;28;20060;-49
2023/11/25 09:26:51;;;;;;;4.05;1.65;;;;;;;;;;4995467;28;20053;-59
2023/11/25 09:29:37;;;;;;;3.60;1.80;;;;;;;;;;4995624;28;20058;-62
2023/11/25 09:32:31;;;;;;;2.42;1.60;;;;;;;;;;4996566;28;20061;-62
2023/11/25 09:35:18;;;;;;;3.33;1.75;;;;;;;;;;4994660;28;20428;-62
2023/11/25 09:38:12;;;;;;;1.77;1.33;;;;;;;;;;4997550;28;20057;-62
2023/11/25 09:40:59;;;;;;;4.38;1.92;;;;;;;;;;4994285;28;20057;-62
2023/11/25 09:43:53;;;;;;;2.55;1.70;;;;;;;;;;4995723;28;20096;-62
2023/11/25 09:46:40;;;;;;;2.53;1.90;;;;;;;;;;4995706;28;20054;-63
2023/11/25 09:49:34;;;;;;;2.13;1.38;;;;;;;;;;4991569;28;20073;-63
2023/11/25 09:52:23;;;;;;;1.88;1.45;;;;;;;;;;4992583;28;20128;-62
2023/11/25 09:55:18;;;;;;;2.22;1.30;;;;;;;;;;4995274;28;20058;-53
2023/11/25 09:58:08;;;;;;;3.00;1.70;;;;;;;;;;4992784;28;20081;-52
2023/11/25 10:01:05;;;;;;;2.45;1.27;;;;;;;;;;4991190;28;20079;-50
2023/11/25 10:03:55;;;;;;;3.17;1.80;;;;;;;;;;4993911;28;20050;-49
2023/11/25 10:06:54;;;;;;;1.63;1.40;;;;;;;;;;4995431;28;20057;-54
2023/11/25 10:09:39;;;;;;;2.00;1.60;;;;;;;;;;4991024;28;20180;-59
2023/11/25 10:12:33;;;;;;;3.40;1.30;;;;;;;;;;4995260;28;20132;-61
2023/11/25 10:15:26;;;;;;;1.17;1.08;;;;;;;;;;4993897;28;20056;-62
2023/11/25 10:18:20;;;;;;;3.95;1.40;;;;;;;;;;4997096;28;20054;-64
2023/11/25 10:21:07;;;;;;;2.25;1.40;;;;;;;;;;4993169;28;20536;-61
2023/11/25 10:24:08;;;;;;;2.22;1.35;;;;;;;;;;4996332;28;20682;-61
2023/11/25 10:26:55;;;;;;;3.65;1.15;;;;;;;;;;5003616;28;20058;-61
2023/11/25 10:29:49;;;;;;;2.00;1.40;;;;;;;;;;5000456;28;20057;-62
2023/11/25 10:32:38;;;;;;;2.05;1.35;;;;;;;;;;4996653;28;20112;-61
2023/11/25 10:35:34;;;;;;;2.08;1.35;;;;;;;;;;5000528;28;20054;-51
2023/11/25 10:38:25;;;;;;;1.40;1.30;;;;;;;;;;4998110;28;20053;-57
2023/11/25 10:41:16;;;;;;;4.50;1.70;;;;;;;;;;4997495;28;20054;-57
2023/11/25 10:44:04;;;;;;;3.17;1.20;;;;;;;;;;4990218;28;20057;-56
2023/11/25 10:46:59;;;;;;;1.55;1.10;;;;;;;;;;4995824;28;20107;-57
2023/11/25 10:49:47;;;;;;;3.97;1.35;;;;;;;;;;4996434;28;20155;-58
2023/11/25 10:52:43;;;;;;;2.00;1.33;;;;;;;;;;5001388;28;20661;-65
2023/11/25 10:55:30;;;;;;;1.50;1.40;;;;;;;;;;5001438;28;20410;-51
2023/11/25 10:58:26;;;;;;;2.33;1.60;;;;;;;;;;4997787;28;20497;-57
2023/11/25 11:01:12;;;;;;;2.72;1.58;;;;;;;;;;4993324;28;20152;-56
2023/11/25 11:04:29;;;;;;;2.08;1.25;;;;;;;;;;4997844;28;20046;-55
2023/11/25 11:07:17;;;;;;;1.92;1.45;;;;;;;;;;4997112;28;20050;-53
2023/11/25 11:10:12;;;;;;;1.60;1.20;;;;;;;;;;5000364;28;20141;-56
2023/11/25 11:13:01;;;;;;;1.65;1.33;;;;;;;;;;4997947;28;20054;-61
2023/11/25 11:16:05;;;;;;;2.25;1.50;;;;;;;;;;4996850;28;20514;-59
2023/11/25 11:19:00;;;;;;;5.10;1.73;;;;;;;;;;4995566;28;20397;-58
2023/11/25 11:21:32;;;;;;;1.60;1.48;;;;;;;;;;4998432;28;20242;-58
2023/11/25 11:24:08;;;;;;;1.83;1.45;;;;;;;;;;4998610;28;20054;-59
2023/11/25 11:26:35;;;;;;;2.55;1.40;;;;;;;;;;4998652;28;20137;-58
2023/11/25 11:29:17;;;;;;;1.95;1.38;;;;;;;;;;4994434;28;20065;-60
2023/11/25 11:31:45;;;;;;;2.75;1.65;;;;;;;;;;4998671;28;20128;-59
2023/11/25 11:34:19;;;;;;;4.50;1.60;;;;;;;;;;4997746;28;20741;-59
2023/11/25 11:36:46;;;;;;;;;;;;;;;;;;4996868;28;20838;-59
2023/11/25 11:39:32;;;;;;;2.17;1.17;;;;;;;;;;4993091;28;20022;-59
2023/11/25 11:42:22;;;;;;;1.95;1.30;;;;;;;;;;4997988;28;20046;-59
2023/11/25 11:44:56;;;;;;;2.65;1.30;;;;;;;;;;4990659;28;20065;-58
2023/11/25 11:47:24;;;;;;;2.17;1.40;;;;;;;;;;4994702;28;20053;-59
2023/11/25 11:49:58;;;;;;;1.30;1.10;;;;;;;;;;4994937;28;20559;-50
2023/11/25 11:52:51;;;;;;;1.60;1.30;;;;;;;;;;4991132;28;20480;-52
2023/11/25 11:55:44;;;;;;;4.18;1.40;;;;;;;;;;4992771;28;20084;-50
2023/11/25 11:58:34;;;;;;;2.70;1.40;;;;;;;;;;4996019;28;20053;-52
2023/11/25 12:01:24;;;;;;;2.13;1.40;;;;;;;;;;4994843;28;20147;-49
2023/11/25 12:04:11;;;;;;;3.47;1.15;;;;;;;;;;4992401;28;20054;-51
2023/11/25 12:07:05;;;;;;;1.77;1.20;;;;;;;;;;4993757;28;22263;-58
2023/11/25 12:09:56;;;;;;;1.20;1.10;;;;;;;;;;4995466;28;20135;-59
2023/11/25 12:12:57;;;;;;;0.95;0.95;;;;;;;;;;4996751;28;20066;-58
2023/11/25 12:15:51;;;;;;;1.30;1.20;;;;;;;;;;4996077;28;20077;-59
2023/11/25 12:18:45;;;;;;;1.40;0.95;;;;;;;;;;4993404;28;20050;-57
2023/11/25 12:21:32;;;;;;;2.10;1.10;;;;;;;;;;4993096;28;20504;-59
2023/11/25 12:24:26;;;;;;;3.53;1.38;;;;;;;;;;5000185;28;20069;-65
2023/11/25 12:27:13;;;;;;;1.70;1.33;;;;;;;;;;4995447;28;20093;-66
2023/11/25 12:30:07;;;;;;;1.88;1.10;;;;;;;;;;4994997;28;20054;-66
2023/11/25 12:33:01;;;;;;;1.85;1.40;;;;;;;;;;4994677;28;20101;-67
2023/11/25 12:35:55;;;;;;;2.10;1.23;;;;;;;;;;4992433;28;20124;-66
2023/11/25 12:38:49;;;;;;;1.63;1.40;;;;;;;;;;4997451;28;20049;-66
2023/11/25 12:41:44;;;;;;;1.80;1.38;;;;;;;;;;4994221;28;20639;-66
2023/11/25 12:45:03;;;;;;;1.75;1.17;;;;;;;;;;4990939;28;20212;-66
2023/11/25 12:47:57;;;;;;;1.52;1.20;;;;;;;;;;4985741;28;20066;-67
2023/11/25 12:51:04;;;;;;;1.30;1.20;;;;;;;;;;4997319;28;20053;-66
2023/11/25 12:53:56;;;;;;;2.05;1.30;;;;;;;;;;4997824;28;20077;-66
2023/11/25 12:56:52;;;;;;;2.40;1.40;;;;;;;;;;4992377;28;20046;-66
2023/11/25 12:59:39;;;;;;;1.38;1.27;;;;;;;;;;4996854;28;20061;-66
2023/11/25 13:02:33;;;;;;;1.48;1.38;;;;;;;;;;4997396;28;20100;-58
2023/11/25 13:05:23;;;;;;;1.80;1.38;;;;;;;;;;4997372;28;20505;-58
2023/11/25 13:08:28;;;;;;;1.40;1.10;;;;;;;;;;4998766;28;20111;-58
2023/11/25 13:11:21;;;;;;;1.90;1.25;;;;;;;;;;4994881;28;20104;-59
2023/11/25 13:14:17;;;;;;;2.60;1.38;;;;;;;;;;4997883;28;20057;-60
2023/11/25 13:17:09;;;;;;;2.33;1.50;;;;;;;;;;4995673;28;20583;-61
2023/11/25 13:20:03;;;;;;;2.78;1.67;;;;;;;;;;4995622;28;20089;-61
2023/11/25 13:22:56;;;;;;;1.42;1.15;;;;;;;;;;4992011;28;20074;-61
2023/11/25 13:25:52;;;;;;;1.33;1.00;;;;;;;;;;4998008;28;20057;-61
2023/11/25 13:28:45;;;;;;;2.67;1.20;;;;;;;;;;4996494;28;20587;-62
2023/11/25 13:31:39;;;;;;;1.92;1.25;;;;;;;;;;4996618;28;20049;-57
2023/11/25 13:34:26;;;;;;;2.72;1.20;;;;;;;;;;4995063;28;20116;-58
2023/11/25 13:37:20;;;;;;;3.33;1.42;;;;;;;;;;4996287;28;20497;-59
2023/11/25 13:40:12;;;;;;;2.15;1.40;;;;;;;;;;4995252;28;20042;-60
2023/11/25 13:43:09;;;;;;;2.47;1.48;;;;;;;;;;4982644;28;20417;-60
2023/11/25 13:45:56;;;;;;;2.20;1.50;;;;;;;;;;4991550;28;20058;-60
2023/11/25 13:48:49;;;;;;;1.40;1.30;;;;;;;;;;4987047;28;20068;-60
2023/11/25 13:51:36;;;;;;;1.38;0.90;;;;;;;;;;4997470;28;20518;-60
2023/11/25 13:54:30;;;;;;;1.73;1.10;;;;;;;;;;5000102;28;20049;-60
2023/11/25 13:57:23;;;;;;;3.03;1.42;;;;;;;;;;4992589;28;20104;-54
2023/11/25 14:00:12;;;;;;;3.67;1.63;;;;;;;;;;4995087;28;20112;-55
2023/11/25 14:03:09;;;;;;;1.55;1.25;;;;;;;;;;4994281;28;20057;-54
2023/11/25 14:06:02;;;;;;;1.55;1.25;;;;;;;;;;4997815;28;20886;-54
2023/11/25 14:08:49;;;;;;;1.80;1.27;;;;;;;;;;4994461;28;20054;-58
2023/11/25 14:11:43;;;;;;;1.35;1.17;;;;;;;;;;4988628;28;20116;-67
2023/11/25 14:14:30;;;;;;;3.58;1.73;;;;;;;;;;4980616;28;20829;-66
2023/11/25 15:48:02;;;;;;;4.00;2.30;;;;;;;;;;4974827;28;20100;-60
2023/11/25 15:50:38;;;;;;;3.57;2.37;;;;;;;;;;4982910;28;20100;-60
2023/11/25 15:53:11;;;;;;;3.70;2.67;;;;;;;;;;4989971;28;20069;-60
2023/11/25 15:55:45;;;;;;;3.00;2.17;;;;;;;;;;4987557;28;20058;-62
2023/11/25 15:58:12;;;;;;;4.93;2.50;;;;;;;;;;4990538;28;20050;-62
2023/11/25 16:00:43;;;;;;;5.03;2.30;;;;;;;;;;4998449;28;20140;-62
2023/11/25 16:03:18;;;;;;;6.60;2.63;;;;;;;;;;4984381;28;20064;-63
2023/11/25 16:05:45;;;;;;;5.13;2.67;;;;;;;;;;4998005;28;20115;-62
2023/11/25 16:08:12;;;;;;;3.85;2.53;;;;;;;;;;4996796;28;20125;-62
2023/11/25 16:11:07;;;;;;;5.57;2.60;;;;;;;;;;4995247;28;20384;-58
2023/11/25 16:13:55;;;;;;;3.50;2.37;;;;;;;;;;4997268;28;20432;-59
2023/11/25 16:16:48;;;;;;;4.93;2.27;;;;;;;;;;4994256;28;20109;-58
2023/11/25 16:19:36;;;;;;;2.57;2.07;;;;;;;;;;4990998;28;20073;-59
2023/11/25 16:22:29;;;;;;;4.00;2.17;;;;;;;;;;4994794;28;20062;-59
2023/11/25 16:25:16;;;;;;;4.03;2.50;;;;;;;;;;4996953;28;20056;-58
2023/11/25 16:28:10;;;;;;;4.47;2.40;;;;;;;;;;4997723;28;20046;-54
2023/11/25 16:30:58;;;;;;;3.77;2.00;;;;;;;;;;4995677;28;20056;-54
2023/11/25 16:33:52;;;;;;;6.50;2.60;;;;;;;;;;4990717;28;20057;-54
2023/11/25 16:36:39;;;;;;;5.77;2.90;;;;;;;;;;4997611;28;20054;-54
2023/11/25 16:39:33;;;;;;;4.43;2.47;;;;;;;;;;5000009;28;20069;-53
2023/11/25 16:42:21;;;;;;;3.57;2.53;;;;;;;;;;4992118;28;20085;-53
2023/11/25 16:45:37;;;;;;;4.53;2.60;;;;;;;;;;4997144;28;20135;-54
2023/11/25 16:48:36;;;;;;;6.20;2.83;;;;;;;;;;4992965;28;20135;-63
2023/11/25 16:51:35;;;;;;;6.23;3.20;;;;;;;;;;4992060;28;20144;-58
2023/11/25 16:54:23;;;;;;;9.13;3.97;;;;;;;;;;4992154;28;20559;-57
2023/11/25 16:57:17;;;;;;;6.80;3.80;;;;;;;;;;4995679;28;20472;-58
2023/11/25 17:00:06;;;;;;;8.75;3.65;;;;;;;;;;4997891;28;20116;-58
2023/11/25 17:02:59;;;;;;;6.73;4.03;;;;;;;;;;4993046;28;20099;-57
2023/11/25 17:05:47;;;;;;;2.50;2.03;;;;;;;;;;4993596;28;20060;-59
2023/11/25 17:08:41;;;;;;;6.20;2.50;;;;;;;;;;4990958;28;20512;-59
2023/11/25 17:11:28;;;;;;;5.47;3.03;;;;;;;;;;4994514;28;20492;-59
2023/11/25 17:14:23;;;;;;;4.87;3.30;;;;;;;;;;4990785;28;20061;-59
2023/11/25 17:17:11;;;;;;;5.43;3.23;;;;;;;;;;4992629;28;20054;-58
2023/11/25 17:20:06;;;;;;;4.73;2.70;;;;;;;;;;4987847;28;20051;-51
2023/11/25 17:22:50;;;;;;;3.57;2.80;;;;;;;;;;4992924;28;20053;-52
2023/11/25 17:25:44;;;;;;;5.63;2.80;;;;;;;;;;4993318;28;20049;-52
2023/11/25 17:28:32;;;;;;;6.77;3.30;;;;;;;;;;4992658;28;20105;-47
2023/11/25 17:31:26;;;;;;;5.00;2.77;;;;;;;;;;4992722;28;20064;-48
2023/11/25 17:34:20;;;;;;;9.97;2.97;;;;;;;;;;4987757;28;20046;-58
2023/11/25 17:37:07;;;;;;;4.07;2.87;;;;;;;;;;4988410;28;20619;-58
2023/11/25 17:40:01;;;;;;;15.80;8.53;;;;;;;;;;4991091;28;20078;-57
2023/11/25 17:42:48;;;;;;;11.47;5.70;;;;;;;;;;4991923;28;20050;-59
2023/11/25 17:45:42;;;;;;;8.00;4.83;;;;;;;;;;4992344;28;20500;-59
2023/11/25 17:48:36;;;;;;;6.53;4.00;;;;;;;;;;4991931;28;20792;-54
2023/11/25 17:51:30;;;;;;;7.00;3.33;;;;;;;;;;4991395;28;20049;-55
2023/11/25 17:54:17;;;;;;;5.83;3.20;;;;;;;;;;4988781;28;20082;-56
2023/11/25 17:57:15;;;;;;;4.20;2.77;;;;;;;;;;4992816;28;22009;-54
2023/11/25 18:00:05;;;;;;;7.03;3.33;;;;;;;;;;4989950;28;20128;-56
2023/11/25 18:02:52;;;;;;;4.20;3.00;;;;;;;;;;4990470;28;20050;-55
2023/11/25 18:05:46;;;;;;;4.70;3.27;;;;;;;;;;4988269;28;20121;-59
2023/11/25 18:08:33;;;;;;;5.37;2.97;;;;;;;;;;4989631;28;20273;-58
2023/11/25 18:11:27;;;;;;;5.17;3.10;;;;;;;;;;4992127;28;20062;-59
2023/11/25 18:14:21;;;;;;;4.20;2.70;;;;;;;;;;4991774;28;20116;-59
2023/11/25 18:17:08;;;;;;;6.03;3.27;;;;;;;;;;4985601;28;20053;-59
2023/11/25 18:20:02;;;;;;;4.20;2.77;;;;;;;;;;4973012;28;20069;-58
2023/11/25 18:22:56;;;;;;;4.83;2.83;;;;;;;;;;4981797;28;21611;-50
2023/11/25 18:25:43;;;;;;;5.53;3.07;;;;;;;;;;4990290;28;20562;-52
2023/11/25 18:28:42;;;;;;;5.35;2.90;;;;;;;;;;4987035;28;20062;-47
2023/11/25 18:31:36;;;;;;;6.43;3.30;;;;;;;;;;4984964;28;20241;-47
2023/11/25 18:34:23;;;;;;;4.03;2.77;;;;;;;;;;4986310;28;20143;-48